createdAt,value
2022-10-28T00:01:47.688Z,14.80
2022-10-28T00:04:50.625Z,14.87
2022-10-28T00:07:53.512Z,14.85
2022-10-28T00:11:03.456Z,14.87
2022-10-28T00:14:07.959Z,14.82
2022-10-28T00:17:12.216Z,14.75
2022-10-28T00:20:15.915Z,14.72
2022-10-28T00:23:18.520Z,14.72
2022-10-28T00:26:24.511Z,14.84
2022-10-28T00:29:27.288Z,14.80
2022-10-28T00:32:32.466Z,14.79
2022-10-28T00:35:35.287Z,14.76
2022-10-28T00:38:38.023Z,14.79
2022-10-28T00:41:43.080Z,14.77
2022-10-28T00:44:58.018Z,14.79
2022-10-28T00:48:03.892Z,14.75
2022-10-28T00:51:06.810Z,14.77
2022-10-28T00:54:09.902Z,14.77
2022-10-28T00:57:15.939Z,14.74
2022-10-28T01:00:18.956Z,14.77
2022-10-28T01:03:23.035Z,14.70
2022-10-28T01:06:27.887Z,14.73
2022-10-28T01:09:30.482Z,14.74
2022-10-28T01:12:41.174Z,14.73
2022-10-28T01:15:50.694Z,14.72
2022-10-28T01:19:07.603Z,14.73
2022-10-28T01:22:21.389Z,14.75
2022-10-28T01:25:42.839Z,14.73
2022-10-28T01:29:04.201Z,14.69
2022-10-28T01:32:13.064Z,14.68
2022-10-28T01:35:23.266Z,14.67
2022-10-28T01:38:34.029Z,14.68
2022-10-28T01:41:44.250Z,14.67
2022-10-28T01:44:53.260Z,14.66
2022-10-28T01:48:01.515Z,14.64
2022-10-28T01:51:09.761Z,14.62
2022-10-28T01:54:16.024Z,14.60
2022-10-28T01:57:19.762Z,14.58
2022-10-28T02:00:22.568Z,14.57
2022-10-28T02:03:27.280Z,14.54
2022-10-28T02:06:33.252Z,14.52
2022-10-28T02:09:52.124Z,14.51
2022-10-28T02:12:57.445Z,14.44
2022-10-28T02:16:07.582Z,14.40
2022-10-28T02:19:20.108Z,14.37
2022-10-28T02:22:27.700Z,14.32
2022-10-28T02:25:34.899Z,14.26
2022-10-28T02:28:43.016Z,14.22
2022-10-28T02:31:50.343Z,14.14
2022-10-28T02:34:57.784Z,14.10
2022-10-28T02:38:03.937Z,14.07
2022-10-28T02:41:14.214Z,14.00
2022-10-28T02:44:21.336Z,13.99
2022-10-28T02:47:29.897Z,13.92
2022-10-28T02:50:37.882Z,13.92
2022-10-28T02:53:51.550Z,14.00
2022-10-28T02:57:00.566Z,13.94
2022-10-28T03:00:08.446Z,13.88
2022-10-28T03:03:11.112Z,13.86
2022-10-28T03:06:15.477Z,13.82
2022-10-28T03:09:18.390Z,13.73
2022-10-28T03:12:21.063Z,13.71
2022-10-28T03:15:23.964Z,13.66
2022-10-28T03:18:26.535Z,13.68
2022-10-28T03:21:30.639Z,13.69
2022-10-28T03:24:33.530Z,13.66
2022-10-28T03:27:36.134Z,13.58
2022-10-28T03:30:38.909Z,13.57
2022-10-28T03:33:41.533Z,13.54
2022-10-28T03:36:45.938Z,13.54
2022-10-28T03:39:48.703Z,13.49
2022-10-28T03:42:51.655Z,13.39
2022-10-28T03:45:54.742Z,13.39
2022-10-28T03:48:57.417Z,13.38
2022-10-28T03:52:01.596Z,13.37
2022-10-28T03:55:04.966Z,13.35
2022-10-28T03:58:07.537Z,13.26
2022-10-28T04:01:10.465Z,13.27
2022-10-28T04:04:13.258Z,13.24
2022-10-28T04:07:17.332Z,13.27
2022-10-28T04:10:20.017Z,13.31
2022-10-28T04:13:22.599Z,13.30
2022-10-28T04:16:25.376Z,13.26
2022-10-28T04:19:28.015Z,13.22
2022-10-28T04:22:32.073Z,13.16
2022-10-28T04:25:34.767Z,13.15
2022-10-28T04:28:37.359Z,13.15
2022-10-28T04:31:40.103Z,13.11
2022-10-28T04:34:42.708Z,13.07
2022-10-28T04:37:46.864Z,13.06
2022-10-28T04:40:49.936Z,13.04
2022-10-28T04:43:52.527Z,12.98
2022-10-28T04:46:56.837Z,12.96
2022-10-28T04:49:59.409Z,12.95
2022-10-28T04:53:03.501Z,12.94
2022-10-28T04:56:06.863Z,12.95
2022-10-28T04:59:09.430Z,12.96
2022-10-28T05:02:12.303Z,12.91
2022-10-28T05:08:24.266Z,12.82
2022-10-28T05:11:27.032Z,12.79
2022-10-28T05:14:29.664Z,12.75
2022-10-28T05:17:32.394Z,12.78
2022-10-28T05:20:35.140Z,12.76
2022-10-28T05:23:39.162Z,12.79
2022-10-28T05:26:41.973Z,12.79
2022-10-28T05:29:44.646Z,12.81
2022-10-28T05:32:49.280Z,12.77
2022-10-28T05:35:54.294Z,12.77
2022-10-28T05:38:58.511Z,12.80
2022-10-28T05:42:01.235Z,12.82
2022-10-28T05:45:03.903Z,12.83
2022-10-28T05:48:07.836Z,12.81
2022-10-28T05:51:10.404Z,12.85
2022-10-28T05:54:14.565Z,12.85
2022-10-28T05:57:17.368Z,12.91
2022-10-28T06:00:21.658Z,12.95
2022-10-28T06:03:28.603Z,12.98
2022-10-28T06:06:33.809Z,12.97
2022-10-28T06:09:38.040Z,12.95
2022-10-28T06:12:39.387Z,12.94
2022-10-28T06:15:42.024Z,12.97
2022-10-28T06:18:44.903Z,12.98
2022-10-28T06:21:47.618Z,13.03
2022-10-28T06:24:51.619Z,13.05
2022-10-28T06:27:55.676Z,13.09
2022-10-28T06:31:01.581Z,13.10
2022-10-28T06:34:04.441Z,13.11
2022-10-28T06:37:08.910Z,13.14
2022-10-28T06:40:13.575Z,13.12
2022-10-28T06:43:16.339Z,13.13
2022-10-28T06:46:18.936Z,13.19
2022-10-28T06:49:23.369Z,13.22
2022-10-28T06:52:25.969Z,13.20
2022-10-28T06:55:31.094Z,13.19
2022-10-28T06:58:33.869Z,13.25
2022-10-28T07:01:36.591Z,13.32
2022-10-28T07:04:39.906Z,13.41
2022-10-28T07:07:42.527Z,13.51
2022-10-28T07:10:54.711Z,13.71
2022-10-28T07:13:57.476Z,13.95
2022-10-28T07:17:00.218Z,14.15
2022-10-28T07:20:03.097Z,14.43
2022-10-28T07:23:05.760Z,14.61
2022-10-28T07:26:09.924Z,14.69
2022-10-28T07:29:12.796Z,14.81
2022-10-28T07:32:16.139Z,15.02
2022-10-28T07:35:19.176Z,15.21
2022-10-28T07:38:22.531Z,15.37
2022-10-28T07:41:27.095Z,15.54
2022-10-28T07:44:29.824Z,15.71
2022-10-28T07:47:32.418Z,15.87
2022-10-28T07:50:35.377Z,16.08
2022-10-28T07:53:38.000Z,16.24
2022-10-28T07:56:42.150Z,16.38
2022-10-28T07:59:45.104Z,16.53
2022-10-28T08:02:47.924Z,16.62
2022-10-28T08:05:50.736Z,16.69
2022-10-28T08:08:56.544Z,16.84
2022-10-28T08:12:00.946Z,16.85
2022-10-28T08:15:03.875Z,16.98
2022-10-28T08:18:06.689Z,17.13
2022-10-28T08:21:11.358Z,17.09
2022-10-28T08:24:14.058Z,17.08
2022-10-28T08:27:18.149Z,17.06
2022-10-28T08:30:20.931Z,17.03
2022-10-28T08:33:23.637Z,17.03
2022-10-28T08:36:26.511Z,17.10
2022-10-28T08:39:29.186Z,17.06
2022-10-28T08:42:41.500Z,17.23
2022-10-28T08:45:51.641Z,17.43
2022-10-28T08:48:57.673Z,17.50
2022-10-28T08:52:05.078Z,17.58
2022-10-28T08:55:13.374Z,17.71
2022-10-28T08:58:21.888Z,17.74
2022-10-28T09:01:36.550Z,17.91
2022-10-28T09:04:41.425Z,17.91
2022-10-28T09:07:44.317Z,18.06
2022-10-28T09:10:59.908Z,18.24
2022-10-28T09:14:16.714Z,18.52
2022-10-28T09:17:21.556Z,18.79
2022-10-28T09:20:35.112Z,18.93
2022-10-28T09:23:49.654Z,19.05
2022-10-28T09:27:00.025Z,19.33
2022-10-28T09:30:19.604Z,19.70
2022-10-28T09:33:47.154Z,19.75
2022-10-28T09:36:55.323Z,19.92
2022-10-28T09:40:03.240Z,20.29
2022-10-28T09:43:12.732Z,20.77
2022-10-28T09:46:18.936Z,20.98
2022-10-28T09:49:26.102Z,20.70
2022-10-28T09:52:35.731Z,20.48
2022-10-28T09:55:38.435Z,20.45
2022-10-28T09:58:47.192Z,20.35
2022-10-28T10:01:51.385Z,20.46
2022-10-28T10:04:54.466Z,20.55
2022-10-28T10:08:00.450Z,21.37
2022-10-28T10:11:06.952Z,21.69
2022-10-28T10:14:13.850Z,21.99
2022-10-28T10:17:21.290Z,22.50
2022-10-28T10:20:23.900Z,22.92
2022-10-28T10:23:32.078Z,23.15
2022-10-28T10:26:35.664Z,23.33
2022-10-28T10:29:45.073Z,23.42
2022-10-28T10:32:50.014Z,23.62
2022-10-28T10:36:00.256Z,23.80
2022-10-28T10:39:04.214Z,23.93
2022-10-28T10:42:17.446Z,24.07
2022-10-28T10:45:23.787Z,24.10
2022-10-28T10:48:28.176Z,24.36
2022-10-28T10:51:31.052Z,24.46
2022-10-28T10:54:35.221Z,24.50
2022-10-28T10:57:38.177Z,24.78
2022-10-28T11:00:47.009Z,24.74
2022-10-28T11:03:55.187Z,24.75
2022-10-28T11:06:58.839Z,24.77
2022-10-28T11:10:02.839Z,24.97
2022-10-28T11:13:26.499Z,24.94
2022-10-28T11:16:29.046Z,25.09
2022-10-28T11:19:34.665Z,25.13
2022-10-28T11:22:46.739Z,25.20
2022-10-28T11:25:52.705Z,25.44
2022-10-28T11:29:10.054Z,25.53
2022-10-28T11:32:34.004Z,25.29
2022-10-28T11:35:54.679Z,25.20
2022-10-28T11:39:13.685Z,25.22
2022-10-28T11:42:25.609Z,25.31
2022-10-28T11:45:33.810Z,25.50
2022-10-28T11:48:59.195Z,25.41
2022-10-28T11:52:13.882Z,25.23
2022-10-28T11:55:27.236Z,25.22
2022-10-28T11:58:40.303Z,25.33
2022-10-28T12:01:55.234Z,24.98
2022-10-28T12:05:05.580Z,25.01
2022-10-28T12:08:26.418Z,24.81
2022-10-28T12:11:40.141Z,24.47
2022-10-28T12:14:52.253Z,24.52
2022-10-28T12:18:02.022Z,24.48
2022-10-28T12:21:16.360Z,24.42
2022-10-28T12:24:23.685Z,24.40
2022-10-28T12:27:31.536Z,24.34
2022-10-28T12:30:38.691Z,24.41
2022-10-28T12:33:45.887Z,24.41
2022-10-28T12:36:53.299Z,24.32
2022-10-28T12:40:03.296Z,24.45
2022-10-28T12:43:11.965Z,24.27
2022-10-28T12:46:23.726Z,24.25
2022-10-28T12:49:37.978Z,23.99
2022-10-28T12:52:48.486Z,23.87
2022-10-28T12:55:58.098Z,24.00
2022-10-28T12:59:07.660Z,23.97
2022-10-28T13:02:17.936Z,23.82
2022-10-28T13:05:24.996Z,23.87
2022-10-28T13:08:45.518Z,23.77
2022-10-28T13:12:16.964Z,23.73
2022-10-28T13:15:44.274Z,23.71
2022-10-28T13:18:59.539Z,23.84
2022-10-28T13:22:20.464Z,23.87
2022-10-28T13:25:35.177Z,23.73
2022-10-28T13:28:47.157Z,23.89
2022-10-28T13:31:50.213Z,23.76
2022-10-28T13:34:52.784Z,23.75
2022-10-28T13:37:57.340Z,23.67
2022-10-28T13:41:28.618Z,23.72
2022-10-28T13:44:48.568Z,23.77
2022-10-28T13:47:51.309Z,23.49
2022-10-28T13:51:42.700Z,23.64
2022-10-28T13:54:56.102Z,23.67
2022-10-28T13:58:01.959Z,23.51
2022-10-28T14:02:01.570Z,23.44
2022-10-28T14:05:14.891Z,23.48
2022-10-28T14:08:22.366Z,23.45
2022-10-28T14:11:28.614Z,23.29
2022-10-28T14:14:31.781Z,23.24
2022-10-28T14:17:42.629Z,23.17
2022-10-28T14:20:58.871Z,23.24
2022-10-28T14:24:13.298Z,23.02
2022-10-28T14:27:28.824Z,23.16
2022-10-28T14:30:31.407Z,23.01
2022-10-28T14:33:34.786Z,23.00
2022-10-28T14:36:48.935Z,23.11
2022-10-28T14:40:07.097Z,22.95
2022-10-28T14:43:44.451Z,22.85
2022-10-28T14:47:00.877Z,22.80
2022-10-28T14:50:08.231Z,22.71
2022-10-28T14:53:18.440Z,22.56
2022-10-28T14:56:25.557Z,22.51
2022-10-28T14:59:34.331Z,22.43
2022-10-28T15:02:39.125Z,22.43
2022-10-28T15:05:41.942Z,22.36
2022-10-28T15:08:45.923Z,22.26
2022-10-28T15:11:51.764Z,22.22
2022-10-28T15:14:56.067Z,22.12
2022-10-28T15:17:59.804Z,21.90
2022-10-28T15:21:10.059Z,22.04
2022-10-28T15:24:17.590Z,21.83
2022-10-28T15:27:21.208Z,21.69
2022-10-28T15:30:25.994Z,21.57
2022-10-28T15:33:31.623Z,21.54
2022-10-28T15:36:34.325Z,21.37
2022-10-28T15:39:40.072Z,21.26
2022-10-28T15:42:50.807Z,21.31
2022-10-28T15:45:54.406Z,21.13
2022-10-28T15:48:59.548Z,20.97
2022-10-28T15:52:22.048Z,20.91
2022-10-28T15:55:47.880Z,20.79
2022-10-28T15:59:14.848Z,20.76
2022-10-28T16:02:40.810Z,20.62
2022-10-28T16:05:47.762Z,20.57
2022-10-28T16:09:02.006Z,20.51
2022-10-28T16:12:16.026Z,20.37
2022-10-28T16:15:19.270Z,20.39
2022-10-28T16:18:25.378Z,20.37
2022-10-28T16:21:28.622Z,20.33
2022-10-28T16:24:31.214Z,20.22
2022-10-28T16:27:35.633Z,20.15
2022-10-28T16:30:38.667Z,20.08
2022-10-28T16:33:41.356Z,19.99
2022-10-28T16:36:44.298Z,19.86
2022-10-28T16:39:47.128Z,20.01
2022-10-28T16:42:51.669Z,19.92
2022-10-28T16:45:57.095Z,19.88
2022-10-28T16:49:01.214Z,19.80
2022-10-28T16:52:05.685Z,19.73
2022-10-28T16:55:16.292Z,19.65
2022-10-28T16:58:23.172Z,19.62
2022-10-28T17:01:29.162Z,19.58
2022-10-28T17:04:32.132Z,19.49
2022-10-28T17:07:35.125Z,19.42
2022-10-28T17:10:39.867Z,19.38
2022-10-28T17:13:44.108Z,19.42
2022-10-28T17:16:46.950Z,19.35
2022-10-28T17:19:49.724Z,19.28
2022-10-28T17:22:52.982Z,19.21
2022-10-28T17:25:59.249Z,19.38
2022-10-28T17:29:03.302Z,19.19
2022-10-28T17:32:08.743Z,19.04
2022-10-28T17:35:13.897Z,19.05
2022-10-28T17:38:16.515Z,18.93
2022-10-28T17:41:19.400Z,19.09
2022-10-28T17:44:24.379Z,18.93
2022-10-28T17:47:27.189Z,18.91
2022-10-28T17:50:29.735Z,18.85
2022-10-28T17:53:32.926Z,18.73
2022-10-28T17:56:35.876Z,18.67
2022-10-28T17:59:40.107Z,18.72
2022-10-28T18:02:43.299Z,18.69
2022-10-28T18:05:46.044Z,18.66
2022-10-28T18:11:53.431Z,18.52
2022-10-28T18:14:58.024Z,18.50
2022-10-28T18:18:01.598Z,18.51
2022-10-28T18:21:04.869Z,18.40
2022-10-28T18:24:08.698Z,18.33
2022-10-28T18:27:11.671Z,18.32
2022-10-28T18:30:16.143Z,18.28
2022-10-28T18:33:19.062Z,18.23
2022-10-28T18:36:23.059Z,18.34
2022-10-28T18:39:27.004Z,18.29
2022-10-28T18:42:30.553Z,18.18
2022-10-28T18:45:35.425Z,18.12
2022-10-28T18:48:38.875Z,18.14
2022-10-28T18:51:41.840Z,18.14
2022-10-28T18:54:44.497Z,18.06
2022-10-28T18:57:50.939Z,17.96
2022-10-28T19:00:55.458Z,17.92
2022-10-28T19:03:59.973Z,17.90
2022-10-28T19:07:02.746Z,17.85
2022-10-28T19:10:07.560Z,17.84
2022-10-28T19:13:10.357Z,17.77
2022-10-28T19:16:15.776Z,17.83
2022-10-28T19:19:18.803Z,17.81
2022-10-28T19:22:22.085Z,17.82
2022-10-28T19:25:24.933Z,17.86
2022-10-28T19:28:28.231Z,17.86
2022-10-28T19:31:36.382Z,17.88
2022-10-28T19:34:39.338Z,17.81
2022-10-28T19:37:42.134Z,17.75
2022-10-28T19:40:44.703Z,17.73
2022-10-28T19:43:47.911Z,17.66
2022-10-28T19:46:51.878Z,17.66
2022-10-28T19:49:54.850Z,17.62
2022-10-28T19:52:57.962Z,17.60
2022-10-28T19:56:02.446Z,17.54
2022-10-28T19:59:08.391Z,17.62
2022-10-28T20:02:13.035Z,17.54
2022-10-28T20:05:16.263Z,17.53
2022-10-28T20:08:19.044Z,17.47
2022-10-28T20:11:26.155Z,17.40
2022-10-28T20:14:29.811Z,17.43
2022-10-28T20:17:34.222Z,17.38
2022-10-28T20:20:37.217Z,17.33
2022-10-28T20:23:40.525Z,17.31
2022-10-28T20:26:43.559Z,17.29
2022-10-28T20:29:46.478Z,17.25
2022-10-28T20:32:54.794Z,17.22
2022-10-28T20:35:59.252Z,17.18
2022-10-28T20:39:03.811Z,17.15
2022-10-28T20:42:06.596Z,17.15
2022-10-28T20:45:10.544Z,17.10
2022-10-28T20:48:14.725Z,17.05
2022-10-28T20:51:18.028Z,17.02
2022-10-28T20:54:20.722Z,16.99
2022-10-28T20:57:23.525Z,16.97
2022-10-28T21:00:26.258Z,16.95
2022-10-28T21:03:30.188Z,16.93
2022-10-28T21:06:33.931Z,16.89
2022-10-28T21:09:36.765Z,16.87
2022-10-28T21:12:39.362Z,16.87
2022-10-28T21:15:45.563Z,16.80
2022-10-28T21:18:50.126Z,16.77
2022-10-28T21:21:53.258Z,16.75
2022-10-28T21:24:56.258Z,16.72
2022-10-28T21:27:59.736Z,16.70
2022-10-28T21:31:05.761Z,16.67
2022-10-28T21:34:10.001Z,16.61
2022-10-28T21:37:12.950Z,16.57
2022-10-28T21:40:15.916Z,16.56
2022-10-28T21:43:18.452Z,16.56
2022-10-28T21:46:22.797Z,16.54
2022-10-28T21:49:26.858Z,16.52
2022-10-28T21:52:29.748Z,16.49
2022-10-28T21:55:46.003Z,16.48
2022-10-28T21:58:51.759Z,16.46
2022-10-28T22:01:55.521Z,16.46
2022-10-28T22:05:00.245Z,16.44
2022-10-28T22:08:04.861Z,16.39
2022-10-28T22:11:09.620Z,16.38
2022-10-28T22:14:12.220Z,16.37
2022-10-28T22:17:15.209Z,16.35
2022-10-28T22:20:19.534Z,16.40
2022-10-28T22:23:22.128Z,16.46
2022-10-28T22:26:26.851Z,16.45
2022-10-28T22:29:29.407Z,16.53
2022-10-28T22:32:32.135Z,16.49
2022-10-28T22:35:36.161Z,16.52
2022-10-28T22:38:38.945Z,16.52
2022-10-28T22:41:41.618Z,16.56
2022-10-28T22:44:44.241Z,16.60
2022-10-28T22:47:47.037Z,16.64
2022-10-28T22:50:51.124Z,16.68
2022-10-28T22:53:53.704Z,16.77
2022-10-28T22:56:56.370Z,16.73
2022-10-28T22:59:58.934Z,16.76
2022-10-28T23:03:01.741Z,16.74
2022-10-28T23:06:07.156Z,16.75
2022-10-28T23:09:10.328Z,16.73
2022-10-28T23:12:13.789Z,16.80
2022-10-28T23:15:16.523Z,16.83
2022-10-28T23:18:19.183Z,16.88
2022-10-28T23:21:24.747Z,16.92
2022-10-28T23:24:27.319Z,16.87
2022-10-28T23:27:30.159Z,16.80
2022-10-28T23:30:32.965Z,16.76
2022-10-28T23:33:36.045Z,16.82
2022-10-28T23:36:40.230Z,16.87
2022-10-28T23:39:42.771Z,16.79
2022-10-28T23:42:45.425Z,16.79
2022-10-28T23:45:48.037Z,16.79
2022-10-28T23:48:50.726Z,16.81
2022-10-28T23:51:54.767Z,16.83
2022-10-28T23:54:57.302Z,16.71
2022-10-28T23:58:00.300Z,16.69
